Thompson Airport
CYTH : now visible

Airfield :











YOU CAN JOIN US ON...

 
LOGIN :

Register | Disclaimer

   EN    FR    IT 

 









Legend :    VFR   Marginal VFR   IFR   Intensive IFR   Very Intensive IFR
Visi :
Ceiling :
>= 8 km
>= 3000ft
5 to 8 km
1000 to 3000 ft
1500m to 5 km
500 to 1000 ft
800 to 1500m
200 to 500 ft
< 800m
< 200 ft
Symbols :   Thunderstorms  Fog  Heavy snow  Heavy precipitations  Wind > 20 kt






- Airport Elevation : 729 ft
- IATA code : YTH


CYTH - Thompson

CURRENT METAR :
  • 140900Z 24008KT 3SM -SN OVC040 M09/M11 A2972 RMK SC8 SLP084

EXPIRED METARs :
  • 140800Z 22006KT 4SM -SN OVC035 M09/M11 A2973 RMK SC8 CIG RAG PRESFR SLP091
  • 140713Z 21007KT 4SM -SN OVC040 M10/M11 A2977 RMK SC8 CIG RAG SLP103
  • 140700Z 21006KT 2SM -SN VV017 M10/M12 A2978 RMK SN8 SLP106
  • 140648Z 22006KT 2SM -SN VV014 M10/M12 A2979 RMK SN8 SLP110

TAF TAF CYTH
Valid from the 14 at 07:00 until the 14 at 19:00 UTC


140647Z 1407/1419 23006KT 1SM -SN VV008
TEMPO 1407/1411 4SM -SN OVC020
FM141100 29010KT P6SM BKN025
TEMPO 1411/1419 4SM -SN OVC020
BECMG 1413/1415 32015G25KT RMK NXT FCST BY 141300Z



MET'MAP, your aeronautical weather chart ! - Copyright ORBIFLY December 2007 - Disclaimer

ORBIFLY MET'MAP TEAM :

Programming & Development : Alexandra Zaïnal
Concept & Development : Baudouin d'Aumeries
Co-Development & Prog : Marc-Olivier Méhu
Technical & hardware support : Manuel Goepfert

Contact : metmap@orbifly.com




SOURCES & CREDITS :

   NOAA       Earth
Advisory